Time;durP1;ratioP1;P1;durP2;ratioP2;P2;SDS_P1;SDS_P2;PMS_P1;PMS_P2;Temp;Humidity;BMP_temperature;BMP_pressure;BME280_temperature;BME280_humidity;BME280_pressure;Samples;Min_cycle;Max_cycle;Signal;HPM_P1;HPM_P2
2021/12/14 00:00:02;;;;;;;1.38;1.27;;;19.90;42.20;;;23.61;28.41;102205.94;5100005;28;20411;-76
2021/12/14 00:02:28;;;;;;;3.33;1.75;;;20.00;42.20;;;23.60;28.31;102201.53;5116973;28;20066;-76
2021/12/14 00:04:59;;;;;;;2.13;1.38;;;20.00;42.20;;;23.59;28.31;102195.34;5115605;28;20429;-76
2021/12/14 00:07:24;;;;;;;2.08;1.30;;;20.00;42.20;;;23.59;28.29;102183.78;5099065;28;20040;-76
2021/12/14 00:09:58;;;;;;;2.90;1.60;;;20.00;42.30;;;23.59;28.48;102181.13;5135116;28;20054;-76
2021/12/14 00:12:36;;;;;;;1.67;1.13;;;20.00;42.30;;;23.57;28.51;102183.91;5117826;28;20061;-76
2021/12/14 00:15:12;;;;;;;2.58;1.35;;;20.00;42.20;;;23.56;28.30;102181.31;5134830;28;20122;-76
2021/12/14 00:17:52;;;;;;;3.70;1.70;;;20.00;42.30;;;23.58;28.17;102188.28;5116629;28;20457;-76
2021/12/14 00:20:35;;;;;;;3.20;1.40;;;20.00;42.30;;;23.55;28.51;102183.09;5116622;28;20066;-76
2021/12/14 00:25:36;;;;;;;1.70;1.15;;;20.00;42.30;;;23.57;28.26;102180.34;5116500;28;20142;-76
2021/12/14 00:28:27;;;;;;;2.20;1.20;;;20.00;42.30;;;23.56;28.60;102178.63;5135032;28;20100;-76
2021/12/14 00:30:58;;;;;;;2.05;1.40;;;20.00;42.30;;;23.56;28.20;102163.47;5116477;28;20096;-76
2021/12/14 00:33:31;;;;;;;2.67;1.55;;;20.00;42.30;;;23.55;28.49;102166.22;5116887;28;20453;-76
2021/12/14 00:35:59;;;;;;;2.13;1.30;;;19.90;42.30;;;23.52;28.41;102156.53;5116456;28;20047;-76
2021/12/14 00:38:25;;;;;;;1.50;1.33;;;19.90;42.30;;;23.55;28.45;102163.53;5115913;28;20046;-76
2021/12/14 00:40:57;;;;;;;2.67;1.25;;;19.90;42.30;;;23.52;28.38;102158.38;5099767;28;20096;-76
2021/12/14 00:43:24;;;;;;;1.67;1.40;;;19.90;42.30;;;23.53;28.34;102155.63;5099292;28;20100;-76
2021/12/14 00:45:50;;;;;;;2.03;1.60;;;19.90;42.30;;;23.55;28.37;102164.41;5099352;28;20046;-76
2021/12/14 00:48:16;;;;;;;2.03;1.13;;;19.90;42.30;;;23.52;28.44;102159.22;5116024;28;20392;-76
2021/12/14 00:50:49;;;;;;;2.00;1.25;;;19.90;42.30;;;23.53;28.33;102166.28;5116039;28;20103;-76
2021/12/14 00:53:15;;;;;;;4.07;1.33;;;19.90;42.30;;;23.52;28.53;102167.22;5115526;28;20385;-76
2021/12/14 00:55:46;;;;;;;1.70;1.25;;;19.90;42.30;;;23.51;28.48;102172.66;5116144;27;20085;-76
2021/12/14 00:58:14;;;;;;;1.83;1.30;;;19.90;42.30;;;23.52;28.33;102169.03;5133573;28;20051;-76
2021/12/14 01:00:58;;;;;;;1.30;1.20;;;19.90;42.30;;;23.52;28.51;102177.03;5079016;28;20452;-76
2021/12/14 01:03:27;;;;;;;1.55;1.42;;;19.90;42.30;;;23.53;28.33;102179.63;5113687;28;20127;-76
2021/12/14 01:05:54;;;;;;;1.63;1.33;;;19.90;42.90;;;23.52;28.19;102182.38;5115730;28;20045;-76
2021/12/14 01:08:25;;;;;;;1.30;1.20;;;19.90;42.30;;;23.52;28.43;102175.22;5098241;28;20055;-76
2021/12/14 01:11:05;;;;;;;1.77;1.60;;;19.90;42.30;;;23.52;28.29;102185.06;5115478;28;20408;-76
2021/12/14 01:13:35;;;;;;;1.35;1.25;;;20.00;42.40;;;23.52;28.34;102196.59;5115977;28;20051;-76
2021/12/14 01:16:19;;;;;;;3.03;1.55;;;19.90;42.30;;;23.48;28.41;102190.56;5098926;28;20451;-76
2021/12/14 01:19:02;;;;;;;1.90;1.30;;;19.90;42.30;;;23.49;28.31;102199.44;5115604;28;20135;-76
2021/12/14 01:24:35;;;;;;;1.40;1.23;;;19.90;42.30;;;23.47;28.27;102199.53;5112748;28;20051;-76
2021/12/14 01:27:14;;;;;;;1.95;1.40;;;19.90;42.30;;;23.48;28.38;102192.38;5116200;28;20053;-76
2021/12/14 01:29:43;;;;;;;1.33;1.13;;;19.90;42.30;;;23.53;28.56;102190.31;5115514;28;20035;-76
2021/12/14 01:32:12;;;;;;;2.53;1.30;;;19.90;42.30;;;23.52;28.42;102185.06;5115323;28;20096;-76
2021/12/14 01:34:38;;;;;;;2.72;1.52;;;19.90;42.30;;;23.52;28.24;102182.38;5115443;28;20135;-76
2021/12/14 01:37:14;;;;;;;1.95;1.20;;;19.90;42.30;;;23.48;28.39;102171.00;5098380;28;20392;-76
2021/12/14 01:39:58;;;;;;;2.88;1.58;;;19.90;42.30;;;23.50;28.55;102166.44;5115192;28;20043;-76
2021/12/14 01:42:38;;;;;;;1.85;1.20;;;19.90;42.30;;;23.46;28.51;102165.75;5100553;28;20391;-76
2021/12/14 01:45:21;;;;;;;1.80;1.13;;;19.90;42.30;;;23.47;28.47;102170.16;5097151;28;20058;-76
2021/12/14 01:47:54;;;;;;;1.52;1.20;;;19.90;42.30;;;23.44;28.46;102162.31;5098414;28;20039;-76
2021/12/14 01:50:45;;;;;;;1.23;1.00;;;19.90;42.30;;;23.48;28.55;102173.69;5114515;28;20063;-76
2021/12/14 01:53:24;;;;;;;1.65;1.30;;;19.90;42.30;;;23.51;28.53;102180.69;5115052;28;20069;-76
2021/12/14 01:55:57;;;;;;;1.88;1.33;;;19.90;42.30;;;23.48;28.39;102171.00;5098482;28;20043;-76
2021/12/14 01:58:32;;;;;;;1.98;1.13;;;19.90;42.30;;;23.46;28.39;102162.22;5098116;28;20047;-76
2021/12/14 02:01:06;;;;;;;3.08;1.40;;;19.90;42.30;;;23.48;28.46;102161.19;5115011;28;20138;-76
2021/12/14 02:03:41;;;;;;;2.10;1.33;;;19.90;42.30;;;23.47;28.47;102151.47;5115695;28;20434;-76
2021/12/14 02:06:06;;;;;;;2.00;1.27;;;19.90;42.30;;;23.47;28.42;102146.13;5098434;28;20130;-76
2021/12/14 02:08:36;;;;;;;1.63;1.48;;;19.90;42.30;;;23.47;28.41;102129.22;5100285;28;20061;-76
2021/12/14 02:11:05;;;;;;;1.42;1.33;;;19.90;42.40;;;23.48;28.29;102130.97;5118824;28;20066;-76
2021/12/14 02:13:37;;;;;;;1.38;1.20;;;19.90;42.40;;;23.43;28.45;102112.53;5118630;28;20043;-76
2021/12/14 02:16:05;;;;;;;1.40;1.30;;;19.80;42.30;;;23.48;28.45;102123.81;5118375;28;20047;-76
2021/12/14 02:18:31;;;;;;;1.25;1.15;;;19.90;42.30;;;23.47;28.23;102118.56;5084535;28;20047;-76
2021/12/14 02:21:03;;;;;;;1.60;1.38;;;19.90;42.30;;;23.43;28.35;102112.53;5101319;28;20043;-76
2021/12/14 02:23:31;;;;;;;1.38;1.10;;;19.90;42.40;;;23.44;28.45;102108.06;5101793;28;20054;-76
2021/12/14 02:26:01;;;;;;;1.50;1.23;;;19.90;42.40;;;23.45;28.47;102110.63;5101240;28;20069;-76
2021/12/14 02:28:27;;;;;;;1.58;1.30;;;19.80;42.30;;;23.45;28.43;102105.28;5101450;28;20491;-76
2021/12/14 02:30:56;;;;;;;1.40;1.30;;;19.80;42.30;;;23.42;28.47;102093.91;5118522;28;20066;-76
2021/12/14 02:33:36;;;;;;;1.58;1.27;;;19.80;42.30;;;23.44;28.57;102092.06;5101109;28;20093;-76
2021/12/14 02:36:08;;;;;;;1.08;1.00;;;19.80;42.30;;;23.44;28.28;102092.06;5101907;28;20399;-76
2021/12/14 02:38:39;;;;;;;;;;;19.80;42.30;;;23.54;28.16;102065.69;5119315;28;20380;-76
2021/12/14 02:41:07;;;;;;;1.65;1.30;;;19.80;42.30;;;23.49;28.27;102087.31;5099389;28;19915;-76
2021/12/14 02:43:55;;;;;;;1.50;1.30;;;19.80;42.30;;;23.46;28.32;102084.81;5102809;28;20051;-76
2021/12/14 02:46:40;;;;;;;1.55;1.20;;;19.80;42.30;;;23.47;28.32;102078.50;5100348;28;20096;-76
2021/12/14 02:49:12;;;;;;;2.08;1.20;;;19.80;42.30;;;23.43;28.41;102069.81;5100658;28;20422;-76
2021/12/14 02:51:43;;;;;;;1.25;1.10;;;19.80;42.30;;;23.47;28.34;102078.50;5100732;28;20043;-76
2021/12/14 02:54:25;;;;;;;1.50;1.25;;;19.80;42.30;;;23.45;28.53;102086.59;5082348;28;20047;-76
2021/12/14 02:57:04;;;;;;;2.28;1.27;;;19.80;42.30;;;23.44;28.36;102078.69;5118077;28;20046;-76
2021/12/14 02:59:36;;;;;;;2.13;1.33;;;19.80;42.30;;;23.43;28.52;102083.16;5118125;28;20088;-76
2021/12/14 03:02:10;;;;;;;1.88;1.30;;;19.80;42.40;;;23.44;28.45;102081.38;5100962;28;20111;-76
2021/12/14 03:04:49;;;;;;;1.30;1.20;;;19.80;42.40;;;23.41;28.31;102074.38;5101079;28;20476;-76
2021/12/14 03:07:21;;;;;;;1.30;1.20;;;19.80;42.40;;;23.44;28.67;102079.56;5117693;28;20396;-76
2021/12/14 03:12:31;;;;;;;1.95;1.00;;;19.80;42.40;;;23.41;28.36;102076.19;5136084;28;20048;-76
2021/12/14 03:15:13;;;;;;;2.15;1.20;;;19.80;42.40;;;23.43;28.40;102080.50;5100728;28;20039;-76
2021/12/14 03:17:43;;;;;;;1.40;1.30;;;19.80;42.40;;;23.41;28.58;102079.72;5100357;28;20556;-76
2021/12/14 03:20:37;;;;;;;1.42;1.10;;;19.80;42.40;;;23.42;28.61;102075.22;5099294;28;20134;-76
2021/12/14 03:23:16;;;;;;;1.30;1.20;;;19.80;42.40;;;23.44;28.55;102070.69;5117413;28;20047;-76
2021/12/14 03:25:48;;;;;;;1.83;1.20;;;19.80;42.40;;;23.39;28.37;102060.25;5117400;28;20540;-76
2021/12/14 03:28:17;;;;;;;1.92;1.20;;;19.80;42.40;;;23.41;28.54;102054.84;5100500;28;20124;-76
2021/12/14 03:30:46;;;;;;;1.40;1.25;;;19.80;42.40;;;23.44;28.56;102054.69;5081763;28;20138;-76
2021/12/14 03:33:20;;;;;;;1.63;1.50;;;19.80;42.30;;;23.43;28.42;102068.97;5117117;28;20078;-76
2021/12/14 03:36:04;;;;;;;1.20;1.02;;;19.80;42.30;;;23.44;28.49;102066.22;5117606;28;20047;-76
2021/12/14 03:38:43;;;;;;;1.77;1.17;;;19.80;42.90;;;23.45;28.44;102075.06;5098747;28;20131;-76
2021/12/14 03:41:21;;;;;;;1.27;1.00;;;19.90;42.30;;;23.44;28.58;102063.53;5117181;28;20047;-76
2021/12/14 03:44:02;;;;;;;1.55;1.45;;;19.90;42.30;;;23.44;28.46;102074.22;5099213;28;20517;-76
2021/12/14 03:46:45;;;;;;;1.27;1.17;;;19.90;42.20;;;23.47;28.31;102068.72;5115658;28;20534;-76
2021/12/14 03:49:12;;;;;;;1.60;1.40;;;19.90;42.20;;;23.51;28.45;102069.41;5099394;28;20578;-76
2021/12/14 03:51:40;;;;;;;1.77;1.15;;;20.00;42.20;;;23.49;28.29;102072.16;5115623;28;20040;-76
2021/12/14 03:54:06;;;;;;;1.55;1.20;;;20.00;42.20;;;23.52;28.39;102072.94;5098041;28;20477;-76
2021/12/14 03:56:34;;;;;;;1.27;1.17;;;20.00;42.00;;;23.56;28.25;102070.03;5099922;28;20104;-76
2021/12/14 03:59:00;;;;;;;1.27;1.17;;;20.00;42.00;;;23.57;28.46;102081.56;5098865;28;20043;-76
2021/12/14 04:01:35;;;;;;;1.52;1.10;;;20.00;42.00;;;23.58;28.29;102075.28;5115694;28;20044;-76
2021/12/14 04:04:18;;;;;;;1.20;1.10;;;20.10;42.00;;;23.60;28.32;102078.72;5099976;28;20051;-76
2021/12/14 04:06:54;;;;;;;1.30;1.20;;;20.10;41.90;;;23.60;28.38;102078.72;5100092;28;20043;-76
2021/12/14 04:09:26;;;;;;;1.35;1.20;;;20.10;41.80;;;23.64;28.36;102075.81;5135113;28;20055;-76
2021/12/14 04:11:54;;;;;;;1.13;1.02;;;20.10;41.80;;;23.66;28.38;102073.06;5099380;28;20592;-76
2021/12/14 04:14:22;;;;;;;1.10;1.00;;;20.20;41.80;;;23.65;28.26;102058.81;5099036;28;20138;-76
2021/12/14 04:16:51;;;;;;;1.30;1.20;;;20.20;41.70;;;23.70;28.21;102063.94;5099299;28;20039;-76
2021/12/14 04:19:22;;;;;;;1.38;1.10;;;20.20;41.70;;;23.71;28.20;102064.81;5098222;28;20135;-76
2021/12/14 04:21:59;;;;;;;1.20;0.95;;;20.20;41.60;;;23.72;28.29;102058.50;5116550;28;20055;-76
2021/12/14 04:24:36;;;;;;;1.80;1.00;;;20.30;41.60;;;23.75;28.07;102061.00;5116801;28;20051;-76
2021/12/14 04:27:10;;;;;;;1.08;0.95;;;20.30;41.60;;;23.77;28.42;102057.31;5099468;28;20042;-76
2021/12/14 04:29:37;;;;;;;1.30;1.17;;;20.30;41.50;;;23.80;28.16;102058.94;5098800;28;20040;-76
2021/12/14 04:32:09;;;;;;;1.42;1.17;;;20.30;41.50;;;23.83;28.14;102051.66;5098673;28;20078;-76
2021/12/14 04:34:35;;;;;;;2.38;1.30;;;20.30;41.50;;;23.85;28.35;102054.25;5116236;28;20492;-76
2021/12/14 04:37:04;;;;;;;1.10;1.00;;;20.40;41.60;;;23.84;28.31;102042.72;5116542;28;20043;-76
2021/12/14 04:39:46;;;;;;;1.00;1.00;;;20.40;41.50;;;23.83;28.13;102026.75;5098098;28;20508;-76
2021/12/14 04:53:55;;;;;;;1.00;0.90;;;20.40;41.30;;;23.95;27.95;102038.56;5102164;28;20050;-76
2021/12/14 04:56:38;;;;;;;1.20;1.10;;;20.40;41.30;;;23.94;27.98;102042.19;5097599;28;20055;-76
2021/12/14 04:59:20;;;;;;;1.27;1.17;;;20.50;41.30;;;23.99;28.17;102040.09;5113886;28;20500;-76
2021/12/14 05:01:48;;;;;;;1.98;1.33;;;20.50;41.40;;;23.99;28.01;102037.44;5116119;28;20400;-76
2021/12/14 05:04:26;;;;;;;1.13;0.98;;;20.50;41.30;;;24.00;27.79;102036.50;5096882;28;20062;-76
2021/12/14 05:07:03;;;;;;;1.02;1.00;;;20.50;41.30;;;23.98;27.86;102035.72;5097812;28;20041;-76
2021/12/14 05:09:34;;;;;;;2.03;1.20;;;20.50;41.30;;;23.99;27.86;102029.41;5080561;28;20082;-76
2021/12/14 05:12:12;;;;;;;1.13;0.90;;;20.50;41.30;;;24.01;28.06;102030.22;5116038;28;20480;-76
2021/12/14 05:14:55;;;;;;;1.40;1.13;;;20.50;41.30;;;24.00;28.06;102037.34;5101257;28;20047;-76
2021/12/14 05:17:33;;;;;;;1.60;1.50;;;20.50;41.30;;;24.03;27.77;102034.50;5096358;28;20404;-76
2021/12/14 05:20:01;;;;;;;2.70;1.30;;;20.50;41.30;;;24.03;27.92;102031.00;5114584;28;20040;-76
2021/12/14 05:22:34;;;;;;;0.80;0.80;;;20.50;41.30;;;23.99;28.01;102026.75;5115502;28;20043;-76
2021/12/14 05:25:17;;;;;;;1.10;1.00;;;20.50;41.30;;;24.00;27.85;102020.47;5097915;28;20052;-76
2021/12/14 05:27:49;;;;;;;0.82;0.82;;;20.50;41.30;;;24.03;27.92;102029.16;5097475;28;20043;-76
2021/12/14 05:30:30;;;;;;;1.40;1.02;;;20.50;41.30;;;24.02;27.67;102023.91;5114446;28;20111;-76
2021/12/14 05:33:15;;;;;;;1.42;1.10;;;20.50;41.30;;;24.03;27.73;102017.63;5099859;28;20139;-76
2021/12/14 05:35:45;;;;;;;0.80;0.80;;;20.50;41.30;;;24.02;27.98;102022.13;5098691;28;20054;-76
2021/12/14 05:38:26;;;;;;;1.10;1.00;;;20.50;41.30;;;24.01;27.96;102032.91;5096954;28;20047;-76
2021/12/14 05:43:31;;;;;;;1.00;0.90;;;20.50;41.30;;;24.02;27.67;102024.78;5114698;28;20047;-76
2021/12/14 05:46:06;;;;;;;1.17;1.08;;;20.50;41.30;;;24.07;27.79;102023.66;5099358;28;20888;-76
2021/12/14 05:48:45;;;;;;;1.35;1.10;;;20.50;41.30;;;24.05;27.82;102026.41;5099879;28;20046;-76
2021/12/14 05:51:11;;;;;;;1.20;1.10;;;20.50;41.30;;;24.04;27.98;102019.38;5098215;28;20047;-76
2021/12/14 05:53:44;;;;;;;1.15;1.05;;;20.50;41.30;;;24.05;27.88;102018.41;5098137;28;20043;-76
2021/12/14 05:56:21;;;;;;;1.33;1.20;;;20.50;41.30;;;23.99;27.90;102002.72;5115395;28;20039;-76
2021/12/14 05:58:49;;;;;;;1.23;1.13;;;20.40;41.30;;;24.02;27.72;102011.44;5081770;28;20035;-76
2021/12/14 06:01:22;;;;;;;1.60;1.15;;;20.50;41.40;;;24.03;27.82;102012.28;5098345;28;20104;-76
2021/12/14 06:04:00;;;;;;;1.23;1.10;;;20.40;41.30;;;24.03;27.88;102004.28;5077838;28;20051;-76
2021/12/14 06:06:33;;;;;;;1.02;1.00;;;20.40;41.30;;;23.98;27.87;102001.84;5077521;28;20094;-77
2021/12/14 06:09:29;;;;;;;0.75;0.75;;;20.50;41.40;;;24.04;27.85;102016.69;5091190;28;20059;-76
2021/12/14 06:12:08;;;;;;;1.98;0.90;;;20.50;41.40;;;24.06;27.78;102017.47;5071507;28;20088;-77
2021/12/14 06:14:41;;;;;;;1.05;0.95;;;20.40;41.40;;;24.04;28.00;102017.53;5094816;28;20047;-77
2021/12/14 06:17:08;;;;;;;1.10;1.00;;;20.40;41.40;;;24.05;27.56;102023.75;5078307;28;20120;-77
2021/12/14 06:19:38;;;;;;;1.25;1.15;;;20.40;42.00;;;24.05;27.96;102032.59;5076176;28;20062;-78
2021/12/14 06:22:14;;;;;;;0.90;0.90;;;20.40;41.40;;;24.04;28.04;102025.56;5077508;28;20564;-77
2021/12/14 06:25:03;;;;;;;1.23;1.10;;;20.40;41.50;;;24.04;27.96;102024.72;5077736;28;20039;-77
2021/12/14 06:27:32;;;;;;;0.93;0.93;;;20.40;41.50;;;24.05;27.88;102024.59;5061967;28;20043;-77
2021/12/14 06:30:04;;;;;;;1.17;1.02;;;20.40;41.50;;;24.05;27.69;102027.25;5077230;28;20056;-77
2021/12/14 06:32:39;;;;;;;1.30;1.20;;;20.40;41.50;;;24.03;27.77;102031.84;5092224;28;20040;-77
2021/12/14 06:35:18;;;;;;;1.20;1.10;;;20.40;41.50;;;24.01;27.88;102023.06;5061373;28;20101;-77
2021/12/14 06:40:53;;;;;;;;;;;20.40;41.50;;;24.15;27.89;102030.28;5112815;28;20078;-77
2021/12/14 06:43:23;;;;;;;0.77;0.75;;;20.50;41.50;;;24.10;27.78;102034.19;5094205;28;19915;-77
2021/12/14 06:45:55;;;;;;;1.10;1.00;;;20.40;41.50;;;24.07;27.83;102042.34;5094608;28;20393;-77
2021/12/14 06:48:30;;;;;;;1.20;1.10;;;20.50;41.50;;;24.05;27.80;102037.09;5077117;28;20409;-77
2021/12/14 06:51:12;;;;;;;1.55;1.10;;;20.40;41.50;;;24.03;27.93;102031.84;5094152;28;20122;-77
2021/12/14 06:53:49;;;;;;;1.33;1.17;;;20.40;41.50;;;24.05;28.05;102039.78;5061864;28;20144;-77
2021/12/14 06:56:35;;;;;;;2.22;0.93;;;20.40;41.50;;;24.02;27.83;102038.16;5100720;28;20446;-77
2021/12/14 06:59:21;;;;;;;1.00;0.90;;;20.50;41.60;;;24.02;28.09;102038.16;5099546;28;20054;-77
2021/12/14 07:02:21;;;;;;;1.60;1.00;;;20.40;41.50;;;24.02;27.99;102030.13;5083731;28;20036;-77
2021/12/14 07:04:59;;;;;;;1.05;0.90;;;20.50;41.60;;;24.05;28.02;102037.94;5066491;28;20485;-77
2021/12/14 07:07:28;;;;;;;1.35;1.10;;;20.40;41.60;;;24.04;27.83;102041.59;5080622;28;20568;-78
2021/12/14 07:10:00;;;;;;;1.10;1.00;;;20.50;41.60;;;24.04;27.90;102038.06;5079123;28;20052;-76
2021/12/14 07:12:35;;;;;;;1.77;1.23;;;20.40;41.60;;;24.03;27.82;102044.34;5080004;28;20047;-77
2021/12/14 07:15:26;;;;;;;1.75;1.13;;;20.40;41.60;;;24.02;27.83;102039.94;5096916;28;20931;-78
2021/12/14 07:18:03;;;;;;;2.22;1.30;;;20.50;41.70;;;24.07;27.92;102055.72;5079986;28;20101;-78
2021/12/14 07:20:35;;;;;;;2.00;1.40;;;20.50;41.60;;;24.05;27.83;102042.44;5078764;28;20050;-78
2021/12/14 07:23:17;;;;;;;1.42;1.20;;;20.50;41.60;;;24.04;27.99;102049.59;5079972;28;20058;-78
2021/12/14 07:25:44;;;;;;;1.25;1.13;;;20.50;41.60;;;24.06;27.87;102038.84;5063768;28;20051;-79
2021/12/14 07:28:16;;;;;;;2.72;1.48;;;20.50;41.60;;;24.07;27.79;102043.22;5078891;28;20481;-79
2021/12/14 07:31:02;;;;;;;1.25;0.95;;;20.50;41.60;;;24.05;28.00;102043.28;5079842;28;20048;-79
2021/12/14 07:33:34;;;;;;;1.40;1.00;;;20.50;41.60;;;24.04;27.97;102044.25;5079859;28;20058;-79
2021/12/14 07:36:01;;;;;;;1.75;0.98;;;20.50;41.60;;;24.03;27.72;102055.88;5079013;28;20051;-78
2021/12/14 07:38:49;;;;;;;1.20;0.98;;;20.50;41.50;;;24.07;28.11;102058.38;5114823;28;20134;-78
2021/12/14 07:41:33;;;;;;;1.10;1.00;;;20.50;41.50;;;24.05;27.97;102064.66;5079741;28;20476;-78
2021/12/14 07:44:17;;;;;;;1.00;0.98;;;20.50;41.60;;;24.04;27.85;102067.47;5062895;28;20071;-78
2021/12/14 07:47:02;;;;;;;1.17;1.08;;;20.50;41.50;;;24.07;28.06;102074.41;5094924;28;20052;-78
2021/12/14 07:49:36;;;;;;;1.20;1.10;;;20.40;41.50;;;24.04;27.83;102070.97;5095175;28;20043;-78
2021/12/14 07:52:07;;;;;;;1.30;1.00;;;20.50;41.60;;;24.05;28.08;102083.38;5114576;28;20052;-78
2021/12/14 07:54:51;;;;;;;1.10;1.00;;;20.50;41.60;;;24.03;27.88;102085.28;5096308;28;20086;-79
2021/12/14 07:57:35;;;;;;;0.93;0.90;;;20.50;41.50;;;24.07;28.11;102093.97;5076689;28;20100;-78
2021/12/14 08:00:17;;;;;;;1.73;1.20;;;20.50;41.60;;;24.01;27.88;102086.31;5093447;28;20100;-78
2021/12/14 08:02:48;;;;;;;1.27;1.17;;;20.50;41.50;;;24.06;27.98;102094.94;5079279;28;20044;-79
2021/12/14 08:05:22;;;;;;;1.58;1.08;;;20.50;41.50;;;24.09;27.81;102104.59;5095944;28;20488;-78
2021/12/14 08:08:08;;;;;;;1.70;1.10;;;20.50;41.50;;;24.06;28.00;102097.63;5096016;28;20546;-78
2021/12/14 08:13:52;;;;;;;1.20;1.10;;;20.50;41.50;;;24.07;27.70;102099.31;5081874;28;20537;-78
2021/12/14 08:16:19;;;;;;;2.28;1.00;;;20.50;41.50;;;24.05;27.86;102104.75;5094842;28;20048;-78
2021/12/14 08:18:47;;;;;;;1.58;1.27;;;20.50;41.50;;;24.09;27.81;102112.59;5077462;28;20048;-78
2021/12/14 08:21:24;;;;;;;1.27;1.10;;;20.50;41.40;;;24.09;27.93;102112.59;5095975;28;20039;-78
2021/12/14 08:23:55;;;;;;;1.38;1.10;;;20.50;41.50;;;24.03;28.00;102098.63;5062488;28;20177;-78
2021/12/14 08:26:37;;;;;;;1.33;1.10;;;20.50;41.50;;;24.09;27.87;102105.47;5078877;28;20048;-78
2021/12/14 08:29:11;;;;;;;1.30;1.20;;;20.50;41.40;;;24.07;27.88;102096.66;5094440;28;20040;-78
2021/12/14 08:31:59;;;;;;;1.77;1.30;;;20.50;41.40;;;24.08;27.92;102092.19;5078738;28;20134;-78
2021/12/14 08:34:29;;;;;;;1.85;1.48;;;20.50;41.40;;;24.10;27.92;102091.13;5078673;28;20138;-78
2021/12/14 08:37:18;;;;;;;0.95;0.73;;;20.50;41.40;;;24.11;28.00;102090.19;5078903;28;20545;-78
2021/12/14 08:39:57;;;;;;;3.67;1.20;;;20.60;41.50;;;24.13;27.95;102090.13;5078341;28;20044;-78
2021/12/14 08:42:38;;;;;;;1.63;1.30;;;20.50;41.40;;;24.11;27.99;102089.34;5078810;28;20040;-78
2021/12/14 08:45:25;;;;;;;2.28;1.08;;;20.60;41.40;;;24.10;27.92;102076.94;5113919;28;20048;-78
2021/12/14 08:48:09;;;;;;;2.05;1.23;;;20.50;41.40;;;24.14;28.03;102091.81;5075935;28;20044;-77
2021/12/14 08:51:00;;;;;;;1.58;0.90;;;20.60;41.40;;;24.14;27.99;102098.06;5095376;28;20048;-77
2021/12/14 08:53:33;;;;;;;1.33;1.23;;;20.60;41.40;;;24.14;27.71;102100.72;5061701;28;20159;-78
2021/12/14 08:56:07;;;;;;;1.75;1.35;;;20.60;41.40;;;24.13;27.90;102100.81;5061474;28;20043;-78
2021/12/14 08:58:33;;;;;;;1.65;1.13;;;20.60;41.40;;;24.17;27.97;102103.22;5093515;28;20058;-78
2021/12/14 09:01:08;;;;;;;1.20;1.10;;;20.60;41.40;;;24.15;27.82;102101.56;5078379;28;20082;-78
2021/12/14 09:03:41;;;;;;;1.65;1.15;;;20.60;41.50;;;24.17;27.90;102097.88;5095661;28;20400;-78
2021/12/14 09:06:17;;;;;;;1.42;1.02;;;20.60;41.50;;;24.17;27.74;102103.22;5078394;28;20122;-78
2021/12/14 09:08:46;;;;;;;1.23;1.00;;;20.50;41.40;;;24.17;27.88;102110.38;5077164;28;20052;-78
2021/12/14 09:11:19;;;;;;;1.20;1.10;;;20.60;41.40;;;24.19;28.04;102103.13;5094996;28;20051;-78
2021/12/14 09:13:45;;;;;;;1.83;1.15;;;20.60;41.40;;;24.16;27.73;102096.16;5094714;28;20056;-78
2021/12/14 09:16:32;;;;;;;1.55;1.10;;;20.60;41.40;;;24.18;27.95;102094.25;5078045;28;20040;-79
2021/12/14 09:19:27;;;;;;;1.13;1.00;;;20.60;41.40;;;24.19;27.79;102100.44;5093733;28;20051;-78
2021/12/14 09:21:56;;;;;;;2.20;1.10;;;20.60;41.40;;;24.18;27.65;102099.59;5078660;28;20051;-78
2021/12/14 09:24:32;;;;;;;1.20;1.00;;;20.60;41.40;;;24.18;27.72;102104.94;5078551;28;20040;-78
2021/12/14 09:27:04;;;;;;;4.68;1.60;;;20.60;41.40;;;24.19;27.69;102101.31;5060895;28;20052;-78
2021/12/14 09:29:32;;;;;;;2.20;1.10;;;20.60;41.40;;;24.16;27.87;102084.59;5078066;28;20520;-78
2021/12/14 09:32:03;;;;;;;1.63;1.23;;;20.60;41.40;;;24.20;27.83;102102.19;5078022;28;20048;-78
2021/12/14 09:34:33;;;;;;;1.20;1.10;;;20.60;41.40;;;24.17;27.79;102097.88;5078029;28;20047;-77
2021/12/14 09:37:02;;;;;;;2.67;1.13;;;20.60;41.50;;;24.20;28.20;102102.19;5077727;28;20048;-84
2021/12/14 09:39:35;;;;;;;1.27;1.10;;;20.60;42.80;;;24.19;28.10;102093.31;5077571;28;20052;-87
2021/12/14 09:42:09;;;;;;;2.60;1.10;;;20.60;41.90;;;24.18;28.15;102090.72;5077636;28;20425;-87
2021/12/14 09:44:36;;;;;;;4.00;1.20;;;20.60;42.50;;;24.20;28.19;102107.53;5077884;28;20079;-83
2021/12/14 09:47:12;;;;;;;3.95;1.33;;;20.60;42.30;;;24.22;28.14;102110.97;5061410;28;20539;-86
2021/12/14 09:49:42;;;;;;;2.67;1.30;;;20.50;42.50;;;24.26;28.30;102115.19;5074906;28;20051;-80
2021/12/14 09:52:22;;;;;;;6.88;1.30;;;20.60;42.90;;;24.27;28.23;102116.06;5073898;28;20048;-84
2021/12/14 09:54:49;;;;;;;3.15;1.50;;;20.60;42.60;;;24.27;28.51;102103.53;5077635;28;20055;-87
2021/12/14 09:57:26;;;;;;;2.00;1.40;;;20.60;42.70;;;24.31;28.34;102109.59;5060565;28;20043;-84
2021/12/14 09:59:54;;;;;;;5.03;1.25;;;20.60;43.00;;;24.34;28.49;102120.09;5077820;28;20043;-84
2021/12/14 10:02:37;;;;;;;3.88;1.50;;;20.70;42.70;;;24.38;28.56;102132.38;5077647;28;20181;-84
2021/12/14 10:05:18;;;;;;;6.22;1.40;;;20.70;42.50;;;24.41;28.32;102122.34;5077660;28;20897;-84
2021/12/14 10:07:44;;;;;;;3.17;0.97;;;20.80;42.40;;;24.46;28.17;102116.75;5076144;28;20063;-84
2021/12/14 10:10:14;;;;;;;3.05;1.00;;;20.80;42.30;;;24.51;28.27;102125.38;5077664;28;20051;-84
2021/12/14 10:12:51;;;;;;;1.98;1.15;;;20.80;42.20;;;24.51;28.19;102124.50;5094426;28;20535;-84
2021/12/14 10:15:32;;;;;;;2.45;1.30;;;20.80;42.10;;;24.54;28.03;102130.53;5059700;28;20056;-83
2021/12/14 10:18:14;;;;;;;2.72;1.48;;;20.80;42.10;;;24.52;28.03;102131.56;5075794;28;20100;-84
2021/12/14 10:21:07;;;;;;;6.38;1.63;;;20.80;42.10;;;24.56;28.00;102135.84;5077406;28;20124;-84
2021/12/14 10:23:37;;;;;;;2.28;1.65;;;20.80;42.10;;;24.53;28.07;102130.63;5076569;28;20048;-84
2021/12/14 10:26:05;;;;;;;2.97;1.38;;;20.80;42.10;;;24.53;27.96;102125.28;5077790;28;20096;-84
2021/12/14 10:28:35;;;;;;;3.15;0.90;;;20.70;42.10;;;24.52;28.01;102135.09;5075884;28;20056;-84
2021/12/14 10:31:09;;;;;;;4.28;1.25;;;20.70;42.10;;;24.49;28.05;102119.25;5094839;28;20110;-84
2021/12/14 10:33:38;;;;;;;3.40;1.40;;;20.70;42.10;;;24.51;27.98;102132.53;5080605;28;20051;-84
2021/12/14 10:36:23;;;;;;;6.68;1.02;;;20.60;42.60;;;24.51;27.90;102133.38;5096593;28;20086;-83
2021/12/14 10:39:39;;;;;;;2.42;1.30;;;20.60;42.20;;;24.50;28.18;102128.13;5099131;28;20058;-84
2021/12/14 10:44:30;;;;;;;4.18;1.20;;;20.60;42.20;;;24.44;27.98;102115.97;5082211;28;20087;-83
2021/12/14 10:46:56;;;;;;;2.13;1.27;;;20.60;42.20;;;24.48;28.09;102120.19;5097778;28;20048;-83
2021/12/14 10:49:25;;;;;;;4.22;1.40;;;20.60;42.20;;;24.44;28.01;102120.44;5076234;28;20039;-84
2021/12/14 10:51:58;;;;;;;3.28;1.20;;;20.60;42.20;;;24.47;28.13;102129.16;5077764;28;20078;-83
2021/12/14 10:54:28;;;;;;;2.38;1.40;;;20.60;42.20;;;24.41;27.96;102118.81;5115032;28;20047;-84
2021/12/14 10:57:05;;;;;;;1.65;1.17;;;20.60;42.20;;;24.39;28.10;102116.25;5078560;28;20197;-84
2021/12/14 10:59:36;;;;;;;2.33;1.10;;;20.60;42.30;;;24.41;28.04;102121.50;5096758;28;20058;-84
2021/12/14 11:02:03;;;;;;;4.65;1.25;;;20.60;42.90;;;24.38;28.11;102122.53;5096935;28;20055;-85
2021/12/14 11:04:40;;;;;;;3.63;1.60;;;20.50;42.30;;;24.38;28.02;102121.66;5079876;28;20051;-84
2021/12/14 11:07:15;;;;;;;2.17;1.40;;;20.50;42.30;;;24.40;27.99;102130.47;5079737;28;20047;-84
2021/12/14 11:09:45;;;;;;;2.25;1.10;;;20.50;42.30;;;24.40;28.12;102122.44;5096615;28;20047;-84
2021/12/14 11:12:37;;;;;;;1.60;1.27;;;20.50;42.70;;;24.37;28.27;102131.50;5096760;28;20083;-83
2021/12/14 11:15:26;;;;;;;3.83;1.35;;;20.50;42.30;;;24.37;27.96;102135.97;5096248;28;20413;-83